Time,TemperatureF,DewpointF,PressureIn,WindDirection,WindDirectionDegrees,WindSpeedMPH,WindSpeedGustMPH,Humidity,HourlyPrecipIn,Conditions,Clouds,dailyrainin,SoftwareType,DateUTC
2013-09-14 00:14:00,66.7,61.0,29.83,SSW,205,0.0,0.0,81,0.00,,,0.00,weatherlink.com 1.10,2013-09-14 05:14:00,
2013-09-14 00:29:00,66.5,61.0,29.83,SSW,205,0.0,0.0,82,0.00,,,0.00,weatherlink.com 1.10,2013-09-14 05:29:00,
2013-09-14 00:44:00,66.3,61.0,29.83,SSW,205,0.0,0.0,82,0.00,,,0.00,weatherlink.com 1.10,2013-09-14 05:44:00,
2013-09-14 00:59:00,66.0,60.0,29.84,SSW,205,0.0,0.0,82,0.00,,,0.00,weatherlink.com 1.10,2013-09-14 05:59:00,
2013-09-14 01:14:00,66.0,61.0,29.83,SSW,205,0.0,0.0,84,0.00,,,0.00,weatherlink.com 1.10,2013-09-14 06:14:00,
2013-09-14 01:29:00,65.6,61.0,29.84,SSW,205,0.0,0.0,84,0.00,,,0.00,weatherlink.com 1.10,2013-09-14 06:29:00,
2013-09-14 01:44:00,65.3,61.0,29.83,SSW,205,0.0,0.0,85,0.00,,,0.00,weatherlink.com 1.10,2013-09-14 06:44:00,
2013-09-14 01:59:00,65.1,61.0,29.83,SSW,205,0.0,0.0,86,0.00,,,0.00,weatherlink.com 1.10,2013-09-14 06:59:00,
2013-09-14 02:14:00,64.8,61.0,29.83,SSW,205,0.0,0.0,86,0.00,,,0.00,weatherlink.com 1.10,2013-09-14 07:14:00,
2013-09-14 02:29:00,64.4,61.0,29.83,SSW,205,0.0,0.0,88,0.00,,,0.00,weatherlink.com 1.10,2013-09-14 07:29:00,
2013-09-14 02:44:00,64.2,61.0,29.83,SSW,205,0.0,0.0,88,0.00,,,0.00,weatherlink.com 1.10,2013-09-14 07:44:00,
2013-09-14 02:59:00,64.1,61.0,29.83,SSW,205,0.0,0.0,89,0.00,,,0.00,weatherlink.com 1.10,2013-09-14 07:59:00,
2013-09-14 03:14:00,63.9,61.0,29.82,SSW,205,0.0,1.0,90,0.00,,,0.00,weatherlink.com 1.10,2013-09-14 08:14:00,
2013-09-14 03:29:00,64.0,61.0,29.82,SSW,205,0.0,1.0,90,0.00,,,0.00,weatherlink.com 1.10,2013-09-14 08:29:00,
2013-09-14 03:44:00,63.7,61.0,29.82,SSW,205,0.0,1.0,91,0.00,,,0.00,weatherlink.com 1.10,2013-09-14 08:44:00,
2013-09-14 03:59:00,63.6,61.0,29.82,SSW,205,0.0,0.0,91,0.00,,,0.00,weatherlink.com 1.10,2013-09-14 08:59:00,
2013-09-14 04:14:00,63.5,61.0,29.82,SSW,205,0.0,0.0,92,0.00,,,0.00,weatherlink.com 1.10,2013-09-14 09:14:00,
2013-09-14 04:29:00,63.2,61.0,29.81,SSW,205,0.0,0.0,92,0.00,,,0.00,weatherlink.com 1.10,2013-09-14 09:29:00,
2013-09-14 04:44:00,63.0,61.0,29.81,SSW,205,0.0,0.0,93,0.00,,,0.00,weatherlink.com 1.10,2013-09-14 09:44:00,
2013-09-14 04:59:00,62.8,61.0,29.81,SSW,205,0.0,0.0,93,0.00,,,0.00,weatherlink.com 1.10,2013-09-14 09:59:00,
2013-09-14 05:14:00,62.7,61.0,29.81,SSW,205,0.0,0.0,93,0.00,,,0.00,weatherlink.com 1.10,2013-09-14 10:14:00,
2013-09-14 05:30:00,62.5,61.0,29.81,SSW,205,0.0,0.0,93,0.00,,,0.00,weatherlink.com 1.10,2013-09-14 10:30:00,
2013-09-14 05:45:00,62.2,60.0,29.82,SSW,205,0.0,0.0,93,0.00,,,0.00,weatherlink.com 1.10,2013-09-14 10:45:00,
2013-09-14 06:00:00,62.2,61.0,29.82,SSW,205,0.0,0.0,94,0.00,,,0.00,weatherlink.com 1.10,2013-09-14 11:00:00,
2013-09-14 06:15:00,61.9,60.0,29.82,SSW,205,0.0,0.0,94,0.00,,,0.00,weatherlink.com 1.10,2013-09-14 11:15:00,
2013-09-14 06:30:00,62.0,60.0,29.83,SSW,205,0.0,0.0,94,0.00,,,0.00,weatherlink.com 1.10,2013-09-14 11:30:00,
2013-09-14 06:45:00,61.8,60.0,29.83,SSW,205,0.0,0.0,94,0.00,,,0.00,weatherlink.com 1.10,2013-09-14 11:45:00,
2013-09-14 07:00:00,61.9,61.0,29.83,SSW,205,0.0,0.0,95,0.00,,,0.00,weatherlink.com 1.10,2013-09-14 12:00:00,
2013-09-14 07:15:00,61.9,61.0,29.83,SSW,205,0.0,0.0,95,0.00,,,0.00,weatherlink.com 1.10,2013-09-14 12:15:00,
2013-09-14 07:30:00,62.0,61.0,29.84,SSW,205,0.0,0.0,95,0.00,,,0.00,weatherlink.com 1.10,2013-09-14 12:30:00,
2013-09-14 07:45:00,62.2,61.0,29.84,SSW,205,0.0,1.0,95,0.00,,,0.00,weatherlink.com 1.10,2013-09-14 12:45:00,
2013-09-14 08:00:00,63.6,63.0,29.85,SW,219,0.0,1.0,96,0.00,,,0.00,weatherlink.com 1.10,2013-09-14 13:00:00,
2013-09-14 08:15:00,66.4,65.0,29.85,SW,219,0.0,0.0,95,0.00,,,0.00,weatherlink.com 1.10,2013-09-14 13:15:00,
2013-09-14 08:30:00,69.6,66.0,29.86,SW,219,0.0,1.0,87,0.00,,,0.00,weatherlink.com 1.10,2013-09-14 13:30:00,
2013-09-14 08:45:00,71.7,67.0,29.86,SW,224,0.0,1.0,84,0.00,,,0.00,weatherlink.com 1.10,2013-09-14 13:45:00,
2013-09-14 09:00:00,74.2,67.0,29.86,SW,228,1.0,2.0,77,0.00,,,0.00,weatherlink.com 1.10,2013-09-14 14:00:00,
2013-09-14 09:15:00,78.8,70.0,29.86,SW,232,0.0,1.0,74,0.00,,,0.00,weatherlink.com 1.10,2013-09-14 14:15:00,
2013-09-14 09:30:00,83.0,70.0,29.86,SW,232,0.0,1.0,65,0.00,,,0.00,weatherlink.com 1.10,2013-09-14 14:30:00,
2013-09-14 09:45:00,84.8,66.0,29.87,SSW,211,0.0,2.0,53,0.00,,,0.00,weatherlink.com 1.10,2013-09-14 14:45:00,
2013-09-14 10:00:00,83.2,63.0,29.87,SSW,213,0.0,2.0,51,0.00,,,0.00,weatherlink.com 1.10,2013-09-14 15:00:00,
2013-09-14 10:15:00,83.9,61.0,29.88,ESE,121,1.0,4.0,46,0.00,,,0.00,weatherlink.com 1.10,2013-09-14 15:15:00,
2013-09-14 10:30:00,85.2,60.0,29.88,SSE,154,1.0,5.0,42,0.00,,,0.00,weatherlink.com 1.10,2013-09-14 15:30:00,
2013-09-14 10:45:00,84.8,56.0,29.88,SE,142,1.0,7.0,38,0.00,,,0.00,weatherlink.com 1.10,2013-09-14 15:45:00,
2013-09-14 11:00:00,85.2,58.0,29.88,SW,221,2.0,5.0,40,0.00,,,0.00,weatherlink.com 1.10,2013-09-14 16:00:00,
2013-09-14 11:15:00,86.2,60.0,29.88,SSE,148,4.0,9.0,41,0.00,,,0.00,weatherlink.com 1.10,2013-09-14 16:15:00,
2013-09-14 11:31:00,86.8,59.0,29.88,SW,235,2.0,11.0,39,0.00,,,0.00,weatherlink.com 1.10,2013-09-14 16:31:00,
2013-09-14 11:45:00,88.1,60.0,29.87,North,6,5.0,12.0,39,0.00,,,0.00,weatherlink.com 1.10,2013-09-14 16:45:00,
2013-09-14 12:00:00,86.9,61.0,29.87,SSE,149,1.0,10.0,42,0.00,,,0.00,weatherlink.com 1.10,2013-09-14 17:00:00,
2013-09-14 12:15:00,88.7,62.0,29.87,South,179,4.0,6.0,41,0.00,,,0.00,weatherlink.com 1.10,2013-09-14 17:15:00,
2013-09-14 12:30:00,88.3,62.0,29.87,NW,314,2.0,13.0,41,0.00,,,0.00,weatherlink.com 1.10,2013-09-14 17:30:00,
2013-09-14 12:45:00,88.3,63.0,29.86,South,179,2.0,12.0,43,0.00,,,0.00,weatherlink.com 1.10,2013-09-14 17:45:00,
2013-09-14 13:00:00,89.3,62.0,29.86,WSW,248,5.0,11.0,40,0.00,,,0.00,weatherlink.com 1.10,2013-09-14 18:00:00,
2013-09-14 13:15:00,89.4,62.0,29.85,ESE,118,3.0,13.0,40,0.00,,,0.00,weatherlink.com 1.10,2013-09-14 18:15:00,
2013-09-14 13:30:00,90.2,63.0,29.84,East,92,4.0,11.0,41,0.00,,,0.00,weatherlink.com 1.10,2013-09-14 18:30:00,
2013-09-14 13:46:00,90.6,62.0,29.83,NE,46,12.0,12.0,39,0.00,,,0.00,weatherlink.com 1.10,2013-09-14 18:46:00,
2013-09-14 14:01:00,91.2,61.0,29.83,WSW,251,2.0,13.0,37,0.00,,,0.00,weatherlink.com 1.10,2013-09-14 19:01:00,
2013-09-14 14:16:00,91.8,61.0,29.82,SSW,210,7.0,12.0,35,0.00,,,0.00,weatherlink.com 1.10,2013-09-14 19:16:00,
2013-09-14 14:46:00,92.3,60.0,29.81,East,82,2.0,12.0,34,0.00,,,0.00,weatherlink.com 1.10,2013-09-14 19:46:00,
2013-09-14 15:01:00,91.8,61.0,29.80,NE,39,8.0,14.0,36,0.00,,,0.00,weatherlink.com 1.10,2013-09-14 20:01:00,
2013-09-14 15:16:00,92.4,62.0,29.80,NE,37,2.0,13.0,36,0.00,,,0.00,weatherlink.com 1.10,2013-09-14 20:16:00,
2013-09-14 15:31:00,91.2,62.0,29.79,SW,218,8.0,10.0,38,0.00,,,0.00,weatherlink.com 1.10,2013-09-14 20:31:00,
2013-09-14 15:47:00,91.4,63.0,29.79,SE,125,6.0,10.0,39,0.00,,,0.00,weatherlink.com 1.10,2013-09-14 20:47:00,
2013-09-14 16:01:00,91.1,63.0,29.78,NE,45,5.0,9.0,39,0.00,,,0.00,weatherlink.com 1.10,2013-09-14 21:01:00,
2013-09-14 16:16:00,91.5,62.0,29.78,SSE,155,3.0,14.0,38,0.00,,,0.00,weatherlink.com 1.10,2013-09-14 21:16:00,
2013-09-14 16:31:00,92.0,63.0,29.77,SW,218,6.0,11.0,38,0.00,,,0.00,weatherlink.com 1.10,2013-09-14 21:31:00,
2013-09-14 16:46:00,92.1,63.0,29.78,ESE,104,3.0,8.0,38,0.00,,,0.00,weatherlink.com 1.10,2013-09-14 21:46:00,
2013-09-14 17:01:00,92.5,63.0,29.78,SE,134,3.0,14.0,38,0.00,,,0.00,weatherlink.com 1.10,2013-09-14 22:01:00,
2013-09-14 17:16:00,91.1,63.0,29.78,SSW,208,5.0,13.0,39,0.00,,,0.00,weatherlink.com 1.10,2013-09-14 22:16:00,
2013-09-14 17:31:00,91.5,63.0,29.78,SW,218,10.0,11.0,39,0.00,,,0.00,weatherlink.com 1.10,2013-09-14 22:31:00,
2013-09-14 17:46:00,91.5,63.0,29.78,SSW,201,3.0,12.0,39,0.00,,,0.00,weatherlink.com 1.10,2013-09-14 22:46:00,
2013-09-14 18:01:00,89.7,63.0,29.79,SSW,193,2.0,12.0,41,0.00,,,0.00,weatherlink.com 1.10,2013-09-14 23:01:00,
2013-09-14 18:16:00,88.7,63.0,29.79,South,170,5.0,9.0,42,0.00,,,0.00,weatherlink.com 1.10,2013-09-14 23:16:00,
2013-09-14 18:31:00,89.3,64.0,29.79,SSE,159,2.0,9.0,43,0.00,,,0.00,weatherlink.com 1.10,2013-09-14 23:31:00,
2013-09-14 18:46:00,87.9,64.0,29.79,SSE,159,1.0,6.0,45,0.00,,,0.00,weatherlink.com 1.10,2013-09-14 23:46:00,
2013-09-14 19:01:00,87.5,64.0,29.80,SW,217,1.0,6.0,45,0.00,,,0.00,weatherlink.com 1.10,2013-09-15 00:01:00,
2013-09-14 19:16:00,86.8,64.0,29.80,South,170,1.0,4.0,46,0.00,,,0.00,weatherlink.com 1.10,2013-09-15 00:16:00,
2013-09-14 19:31:00,86.0,64.0,29.80,South,176,3.0,5.0,48,0.00,,,0.00,weatherlink.com 1.10,2013-09-15 00:31:00,
2013-09-14 19:46:00,85.0,64.0,29.80,SSW,211,1.0,5.0,50,0.00,,,0.00,weatherlink.com 1.10,2013-09-15 00:46:00,
2013-09-14 20:01:00,83.7,64.0,29.81,SW,224,0.0,3.0,52,0.00,,,0.00,weatherlink.com 1.10,2013-09-15 01:01:00,
2013-09-14 20:16:00,81.8,63.0,29.81,SW,217,0.0,0.0,54,0.00,,,0.00,weatherlink.com 1.10,2013-09-15 01:16:00,
2013-09-14 20:31:00,79.5,64.0,29.81,SW,217,0.0,1.0,60,0.00,,,0.00,weatherlink.com 1.10,2013-09-15 01:31:00,
2013-09-14 20:47:00,78.1,64.0,29.83,SW,217,0.0,0.0,62,0.00,,,0.00,weatherlink.com 1.10,2013-09-15 01:47:00,
2013-09-14 21:01:00,77.0,64.0,29.83,SW,217,1.0,1.0,65,0.00,,,0.00,weatherlink.com 1.10,2013-09-15 02:01:00,
2013-09-14 21:16:00,76.0,64.0,29.83,SW,218,0.0,1.0,66,0.00,,,0.00,weatherlink.com 1.10,2013-09-15 02:16:00,
2013-09-14 21:31:00,75.2,64.0,29.84,SW,218,1.0,1.0,69,0.00,,,0.00,weatherlink.com 1.10,2013-09-15 02:31:00,
2013-09-14 21:46:00,74.9,65.0,29.84,SW,219,0.0,1.0,70,0.00,,,0.00,weatherlink.com 1.10,2013-09-15 02:46:00,
2013-09-14 22:01:00,74.7,64.0,29.86,NE,56,0.0,1.0,70,0.00,,,0.00,weatherlink.com 1.10,2013-09-15 03:01:00,
2013-09-14 22:16:00,76.8,66.0,29.87,SSW,204,1.0,5.0,70,0.00,,,0.00,weatherlink.com 1.10,2013-09-15 03:16:00,
2013-09-14 22:31:00,78.0,67.0,29.87,SW,214,4.0,10.0,70,0.00,,,0.00,weatherlink.com 1.10,2013-09-15 03:31:00,
2013-09-14 22:46:00,77.8,68.0,29.87,South,176,1.0,5.0,72,0.00,,,0.00,weatherlink.com 1.10,2013-09-15 03:46:00,
2013-09-14 23:01:00,77.2,68.0,29.88,SSE,158,2.0,2.0,74,0.00,,,0.00,weatherlink.com 1.10,2013-09-15 04:01:00,
2013-09-14 23:16:00,76.6,68.0,29.88,SSE,162,0.0,1.0,75,0.00,,,0.00,weatherlink.com 1.10,2013-09-15 04:16:00,
2013-09-14 23:31:00,76.3,68.0,29.88,SSE,155,0.0,2.0,76,0.00,,,0.00,weatherlink.com 1.10,2013-09-15 04:31:00,
2013-09-14 23:46:00,76.2,68.0,29.88,SSE,160,1.0,8.0,76,0.00,,,0.00,weatherlink.com 1.10,2013-09-15 04:46:00,